createdAt,value
2023-04-26T00:00:09.528Z,100.00
2023-04-26T00:02:37.669Z,100.00
2023-04-26T00:05:08.123Z,100.00
2023-04-26T00:07:38.266Z,100.00
2023-04-26T00:10:07.723Z,100.00
2023-04-26T00:12:36.776Z,100.00
2023-04-26T00:15:05.567Z,100.00
2023-04-26T00:17:33.505Z,100.00
2023-04-26T00:20:09.052Z,100.00
2023-04-26T00:22:36.627Z,100.00
2023-04-26T00:25:04.796Z,100.00
2023-04-26T00:27:32.697Z,100.00
2023-04-26T00:30:00.291Z,100.00
2023-04-26T00:32:27.986Z,100.00
2023-04-26T00:34:58.341Z,100.00
2023-04-26T00:37:26.189Z,100.00
2023-04-26T00:39:53.772Z,100.00
2023-04-26T00:42:22.074Z,100.00
2023-04-26T00:44:50.414Z,100.00
2023-04-26T00:47:18.090Z,100.00
2023-04-26T00:49:45.992Z,100.00
2023-04-26T00:52:14.411Z,100.00
2023-04-26T00:54:42.367Z,100.00
2023-04-26T00:57:12.496Z,100.00
2023-04-26T00:59:40.282Z,100.00
2023-04-26T01:02:08.060Z,100.00
2023-04-26T01:04:37.454Z,100.00
2023-04-26T01:07:05.632Z,100.00
2023-04-26T01:09:34.382Z,100.00
2023-04-26T01:12:02.919Z,100.00
2023-04-26T01:14:31.870Z,100.00
2023-04-26T01:17:03.348Z,100.00
2023-04-26T01:19:32.407Z,100.00
2023-04-26T01:22:00.057Z,100.00
2023-04-26T01:24:28.678Z,100.00
2023-04-26T01:26:57.880Z,100.00
2023-04-26T01:29:25.734Z,100.00
2023-04-26T01:31:53.556Z,100.00
2023-04-26T01:34:21.099Z,100.00
2023-04-26T01:36:48.614Z,100.00
2023-04-26T01:39:16.476Z,100.00
2023-04-26T01:41:44.160Z,100.00
2023-04-26T01:44:11.944Z,100.00
2023-04-26T01:46:39.539Z,100.00
2023-04-26T01:49:07.173Z,100.00
2023-04-26T01:51:37.587Z,100.00
2023-04-26T01:54:08.384Z,100.00
2023-04-26T01:56:36.047Z,100.00
2023-04-26T01:59:03.855Z,100.00
2023-04-26T02:01:32.746Z,100.00
2023-04-26T02:04:00.384Z,100.00
2023-04-26T02:06:28.415Z,100.00
2023-04-26T02:08:57.114Z,100.00
2023-04-26T02:11:24.863Z,100.00
2023-04-26T02:13:55.158Z,100.00
2023-04-26T02:16:23.111Z,100.00
2023-04-26T02:18:50.932Z,100.00
2023-04-26T02:21:19.178Z,100.00
2023-04-26T02:23:46.758Z,100.00
2023-04-26T02:26:16.085Z,100.00
2023-04-26T02:28:44.520Z,100.00
2023-04-26T02:31:12.144Z,100.00
2023-04-26T02:33:39.776Z,100.00
2023-04-26T02:36:10.904Z,100.00
2023-04-26T02:38:38.820Z,100.00
2023-04-26T02:41:08.522Z,100.00
2023-04-26T02:43:36.554Z,100.00
2023-04-26T02:46:07.710Z,100.00
2023-04-26T02:48:38.350Z,100.00
2023-04-26T02:51:06.491Z,100.00
2023-04-26T02:53:34.403Z,100.00
2023-04-26T02:56:02.773Z,100.00
2023-04-26T02:58:30.303Z,100.00
2023-04-26T03:04:34.340Z,100.00
2023-04-26T03:07:05.086Z,100.00
2023-04-26T03:09:34.666Z,100.00
2023-04-26T03:12:03.471Z,100.00
2023-04-26T03:14:31.601Z,100.00
2023-04-26T03:17:00.132Z,100.00
2023-04-26T03:19:30.913Z,100.00
2023-04-26T03:21:58.996Z,100.00
2023-04-26T03:24:27.367Z,100.00
2023-04-26T03:26:55.869Z,100.00
2023-04-26T03:29:26.385Z,100.00
2023-04-26T03:31:54.257Z,100.00
2023-04-26T03:34:22.287Z,100.00
2023-04-26T03:36:50.342Z,100.00
2023-04-26T03:39:18.006Z,100.00
2023-04-26T03:41:46.298Z,100.00
2023-04-26T03:44:14.449Z,100.00
2023-04-26T03:46:43.568Z,100.00
2023-04-26T03:49:11.260Z,100.00
2023-04-26T03:51:39.174Z,100.00
2023-04-26T03:54:06.695Z,100.00
2023-04-26T03:56:34.405Z,100.00
2023-04-26T03:59:02.186Z,100.00
2023-04-26T04:01:29.972Z,100.00
2023-04-26T04:03:58.207Z,100.00
2023-04-26T04:06:26.185Z,100.00
2023-04-26T04:08:54.257Z,100.00
2023-04-26T04:11:23.768Z,100.00
2023-04-26T04:13:52.048Z,100.00
2023-04-26T04:16:19.791Z,100.00
2023-04-26T04:18:47.456Z,100.00
2023-04-26T04:21:15.126Z,100.00
2023-04-26T04:23:44.430Z,100.00
2023-04-26T04:26:13.513Z,100.00
2023-04-26T04:28:41.833Z,100.00
2023-04-26T04:31:13.248Z,100.00
2023-04-26T04:33:41.757Z,100.00
2023-04-26T04:36:10.075Z,100.00
2023-04-26T04:38:37.882Z,100.00
2023-04-26T04:41:08.714Z,100.00
2023-04-26T04:43:37.478Z,100.00
2023-04-26T04:46:05.341Z,100.00
2023-04-26T04:48:34.164Z,100.00
2023-04-26T04:51:02.536Z,100.00
2023-04-26T04:53:30.776Z,100.00
2023-04-26T04:55:58.939Z,100.00
2023-04-26T04:58:26.522Z,100.00
2023-04-26T05:00:55.754Z,100.00
2023-04-26T05:03:34.218Z,100.00
2023-04-26T05:06:06.542Z,100.00
2023-04-26T05:08:34.354Z,100.00
2023-04-26T05:11:05.155Z,100.00
2023-04-26T05:13:34.230Z,100.00
2023-04-26T05:16:10.179Z,100.00
2023-04-26T05:18:39.065Z,100.00
2023-04-26T05:21:07.667Z,100.00
2023-04-26T05:23:36.380Z,100.00
2023-04-26T05:26:07.577Z,100.00
2023-04-26T05:28:50.423Z,100.00
2023-04-26T05:31:27.286Z,100.00
2023-04-26T05:34:11.806Z,100.00
2023-04-26T05:36:40.969Z,100.00
2023-04-26T05:39:08.949Z,100.00
2023-04-26T05:41:47.165Z,100.00
2023-04-26T05:44:26.691Z,100.00
2023-04-26T05:46:57.326Z,100.00
2023-04-26T05:49:27.201Z,100.00
2023-04-26T05:51:55.297Z,100.00
2023-04-26T05:54:23.573Z,100.00
2023-04-26T05:56:53.467Z,100.00
2023-04-26T05:59:21.723Z,100.00
2023-04-26T06:01:49.302Z,100.00
2023-04-26T06:04:20.173Z,100.00
2023-04-26T06:07:11.168Z,100.00
2023-04-26T06:09:38.947Z,100.00
2023-04-26T06:12:07.126Z,100.00
2023-04-26T06:14:38.739Z,100.00
2023-04-26T06:17:10.984Z,100.00
2023-04-26T06:19:38.598Z,100.00
2023-04-26T06:22:06.185Z,100.00
2023-04-26T06:24:34.820Z,99.44
2023-04-26T06:27:02.743Z,95.68
2023-04-26T06:29:33.498Z,98.77
2023-04-26T06:32:01.724Z,92.88
2023-04-26T06:34:33.464Z,89.22
2023-04-26T06:37:01.434Z,87.67
2023-04-26T06:39:32.692Z,83.52
2023-04-26T06:42:02.191Z,85.37
2023-04-26T06:44:50.848Z,82.12
2023-04-26T06:47:25.298Z,81.19
2023-04-26T06:49:56.717Z,81.76
2023-04-26T06:52:24.541Z,73.83
2023-04-26T06:54:56.980Z,75.79
2023-04-26T06:57:26.204Z,68.22
2023-04-26T06:59:57.234Z,68.26
2023-04-26T07:02:25.232Z,68.11
2023-04-26T07:04:53.578Z,68.24
2023-04-26T07:07:21.886Z,66.85
2023-04-26T07:09:50.106Z,65.88
2023-04-26T07:12:17.870Z,65.77
2023-04-26T07:14:46.141Z,63.64
2023-04-26T07:17:14.218Z,64.84
2023-04-26T07:19:42.139Z,64.64
2023-04-26T07:22:10.691Z,61.42
2023-04-26T07:24:38.451Z,63.44
2023-04-26T07:27:06.337Z,62.83
2023-04-26T07:29:34.410Z,63.49
2023-04-26T07:32:02.343Z,61.29
2023-04-26T07:34:30.018Z,63.88
2023-04-26T07:36:58.303Z,62.54
2023-04-26T07:39:25.972Z,66.87
2023-04-26T07:41:54.084Z,68.40
2023-04-26T07:44:22.313Z,68.66
2023-04-26T07:46:52.027Z,67.47
2023-04-26T07:49:19.688Z,69.94
2023-04-26T07:51:48.194Z,65.19
2023-04-26T07:54:16.228Z,64.38
2023-04-26T07:56:44.144Z,65.93
2023-04-26T07:59:12.289Z,65.14
2023-04-26T08:01:40.235Z,65.16
2023-04-26T08:04:08.474Z,65.92
2023-04-26T08:06:37.863Z,67.21
2023-04-26T08:09:05.793Z,64.61
2023-04-26T08:11:33.570Z,65.13
2023-04-26T08:14:01.214Z,65.59
2023-04-26T08:16:32.344Z,65.53
2023-04-26T08:19:03.468Z,63.65
2023-04-26T08:21:32.299Z,65.58
2023-04-26T08:24:00.366Z,65.70
2023-04-26T08:26:28.421Z,63.53
2023-04-26T08:28:57.396Z,63.49
2023-04-26T08:31:28.601Z,62.87
2023-04-26T08:33:57.120Z,61.65
2023-04-26T08:36:28.856Z,58.96
2023-04-26T08:38:57.919Z,60.41
2023-04-26T08:41:26.587Z,59.01
2023-04-26T08:43:58.597Z,59.32
2023-04-26T08:46:32.333Z,60.77
2023-04-26T08:49:46.214Z,59.20
2023-04-26T08:52:18.165Z,60.03
2023-04-26T08:54:46.994Z,59.52
2023-04-26T08:57:15.910Z,59.51
2023-04-26T08:59:44.980Z,60.39
2023-04-26T09:02:20.617Z,60.52
2023-04-26T09:04:50.310Z,59.15
2023-04-26T09:07:22.528Z,58.35
2023-04-26T09:14:25.876Z,60.63
2023-04-26T09:16:54.516Z,60.88
2023-04-26T09:19:43.134Z,58.67
2023-04-26T09:22:37.310Z,58.29
2023-04-26T09:25:05.870Z,56.71
2023-04-26T09:27:34.729Z,56.31
2023-04-26T09:30:08.309Z,57.24
2023-04-26T09:37:00.875Z,56.32
2023-04-26T09:39:42.024Z,55.63
2023-04-26T09:42:11.374Z,56.37
2023-04-26T09:44:39.542Z,59.53
2023-04-26T09:47:12.022Z,60.63
2023-04-26T09:49:51.907Z,60.67
2023-04-26T09:52:20.866Z,61.26
2023-04-26T09:54:57.010Z,63.55
2023-04-26T09:57:27.358Z,60.75
2023-04-26T10:00:00.228Z,58.99
2023-04-26T10:02:30.148Z,59.89
2023-04-26T10:05:00.248Z,59.05
2023-04-26T10:07:30.679Z,58.82
2023-04-26T10:09:59.263Z,57.32
2023-04-26T10:12:27.830Z,57.95
2023-04-26T10:14:57.899Z,56.45
2023-04-26T10:17:26.100Z,58.74
2023-04-26T10:19:59.135Z,58.70
2023-04-26T10:22:31.732Z,56.53
2023-04-26T10:24:59.879Z,55.72
2023-04-26T10:27:47.154Z,59.77
2023-04-26T10:30:19.805Z,61.94
2023-04-26T10:32:56.936Z,60.18
2023-04-26T10:35:26.954Z,58.74
2023-04-26T10:38:12.774Z,57.91
2023-04-26T10:40:41.399Z,57.22
2023-04-26T10:43:10.920Z,57.01
2023-04-26T10:45:40.321Z,56.21
2023-04-26T10:48:31.581Z,59.12
2023-04-26T10:51:04.923Z,58.96
2023-04-26T10:53:54.638Z,58.48
2023-04-26T10:56:25.672Z,56.53
2023-04-26T10:59:33.238Z,56.30
2023-04-26T11:02:01.998Z,56.85
2023-04-26T11:04:55.273Z,57.82
2023-04-26T11:07:43.193Z,55.92
2023-04-26T11:10:23.199Z,57.00
2023-04-26T11:13:04.598Z,57.74
2023-04-26T11:15:35.762Z,55.27
2023-04-26T11:18:06.052Z,53.70
2023-04-26T11:20:36.184Z,53.74
2023-04-26T11:23:08.326Z,53.73
2023-04-26T11:25:39.680Z,55.84
2023-04-26T11:28:08.346Z,57.94
2023-04-26T11:30:38.722Z,56.83
2023-04-26T11:33:22.878Z,57.21
2023-04-26T11:35:52.982Z,57.28
2023-04-26T11:38:28.095Z,56.86
2023-04-26T11:40:57.861Z,53.15
2023-04-26T11:43:37.014Z,55.03
2023-04-26T11:46:07.146Z,54.77
2023-04-26T11:48:37.494Z,55.79
2023-04-26T11:51:23.525Z,55.36
2023-04-26T11:53:54.818Z,54.22
2023-04-26T11:56:25.695Z,54.04
2023-04-26T11:58:54.137Z,53.56
2023-04-26T12:01:26.312Z,51.87
2023-04-26T12:03:59.236Z,51.20
2023-04-26T12:06:42.858Z,51.83
2023-04-26T12:09:12.386Z,52.92
2023-04-26T12:11:51.149Z,51.27
2023-04-26T12:14:19.572Z,51.37
2023-04-26T12:16:47.452Z,49.56
2023-04-26T12:19:17.681Z,48.81
2023-04-26T12:21:48.153Z,46.18
2023-04-26T12:24:27.990Z,52.63
2023-04-26T12:26:55.962Z,52.81
2023-04-26T12:29:24.298Z,53.26
2023-04-26T12:31:52.672Z,54.70
2023-04-26T12:34:20.519Z,53.72
2023-04-26T12:36:49.108Z,53.10
2023-04-26T12:39:17.454Z,53.26
2023-04-26T12:41:46.606Z,52.69
2023-04-26T12:44:15.338Z,54.29
2023-04-26T12:46:44.249Z,53.67
2023-04-26T12:49:14.488Z,54.05
2023-04-26T12:51:43.378Z,51.78
2023-04-26T12:54:11.504Z,53.08
2023-04-26T12:56:44.592Z,54.56
2023-04-26T12:59:12.827Z,54.67
2023-04-26T13:01:41.215Z,53.77
2023-04-26T13:04:10.403Z,51.12
2023-04-26T13:06:44.386Z,52.99
2023-04-26T13:09:14.230Z,52.85
2023-04-26T13:11:45.263Z,54.01
2023-04-26T13:14:15.634Z,52.81
2023-04-26T13:16:44.212Z,51.58
2023-04-26T13:19:12.195Z,51.97
2023-04-26T13:21:41.695Z,49.47
2023-04-26T13:24:10.529Z,47.85
2023-04-26T13:26:38.278Z,47.03
2023-04-26T13:29:05.912Z,46.84
2023-04-26T13:31:34.651Z,44.88
2023-04-26T13:34:04.063Z,44.00
2023-04-26T13:36:33.101Z,48.97
2023-04-26T13:39:01.082Z,48.82
2023-04-26T13:41:33.800Z,49.32
2023-04-26T13:44:04.305Z,48.50
2023-04-26T13:46:32.665Z,48.62
2023-04-26T13:49:00.402Z,47.97
2023-04-26T13:51:31.142Z,47.85
2023-04-26T13:54:01.287Z,46.55
2023-04-26T13:56:30.369Z,45.02
2023-04-26T13:59:01.738Z,43.53
2023-04-26T14:01:30.480Z,43.43
2023-04-26T14:03:58.543Z,37.30
2023-04-26T14:06:27.185Z,37.67
2023-04-26T14:08:55.061Z,36.09
2023-04-26T14:11:24.955Z,36.13
2023-04-26T14:13:56.435Z,35.21
2023-04-26T14:16:25.538Z,33.38
2023-04-26T14:18:53.993Z,33.32
2023-04-26T14:21:22.140Z,33.47
2023-04-26T14:23:51.472Z,31.49
2023-04-26T14:26:28.933Z,33.66
2023-04-26T14:28:57.235Z,35.49
2023-04-26T14:31:26.495Z,39.22
2023-04-26T14:33:55.213Z,38.34
2023-04-26T14:36:23.370Z,36.93
2023-04-26T14:38:54.676Z,35.75
2023-04-26T14:41:24.036Z,34.21
2023-04-26T14:43:52.200Z,36.20
2023-04-26T14:46:20.674Z,36.25
2023-04-26T14:48:51.441Z,37.76
2023-04-26T14:51:19.539Z,37.07
2023-04-26T14:53:48.090Z,39.00
2023-04-26T14:56:16.160Z,39.62
2023-04-26T14:58:46.799Z,40.10
2023-04-26T15:01:14.868Z,39.67
2023-04-26T15:03:43.833Z,37.89
2023-04-26T15:06:12.245Z,40.17
2023-04-26T15:08:43.262Z,41.00
2023-04-26T15:11:13.396Z,38.97
2023-04-26T15:13:42.480Z,36.80
2023-04-26T15:16:10.490Z,36.79
2023-04-26T15:18:38.229Z,38.98
2023-04-26T15:21:06.610Z,36.30
2023-04-26T15:23:38.543Z,36.90
2023-04-26T15:26:07.190Z,36.41
2023-04-26T15:28:35.291Z,36.42
2023-04-26T15:31:11.534Z,36.41
2023-04-26T15:33:40.668Z,36.93
2023-04-26T15:36:08.882Z,36.18
2023-04-26T15:38:37.085Z,35.74
2023-04-26T15:41:07.022Z,36.62
2023-04-26T15:43:35.074Z,37.54
2023-04-26T15:46:03.095Z,37.17
2023-04-26T15:48:31.828Z,37.93
2023-04-26T15:50:59.706Z,37.37
2023-04-26T15:53:30.535Z,36.63
2023-04-26T15:56:01.643Z,37.07
2023-04-26T15:58:29.788Z,36.92
2023-04-26T16:00:58.467Z,37.63
2023-04-26T16:03:27.780Z,37.26
2023-04-26T16:05:59.809Z,37.72
2023-04-26T16:08:39.790Z,38.28
2023-04-26T16:11:17.347Z,39.10
2023-04-26T16:13:53.295Z,37.88
2023-04-26T16:16:27.602Z,39.13
2023-04-26T16:18:55.692Z,39.86
2023-04-26T16:21:24.292Z,40.13
2023-04-26T16:23:58.042Z,40.49
2023-04-26T16:26:27.914Z,40.57
2023-04-26T16:28:56.087Z,40.97
2023-04-26T16:31:23.974Z,41.04
2023-04-26T16:33:59.208Z,39.85
2023-04-26T16:36:29.095Z,40.42
2023-04-26T16:39:00.236Z,40.43
2023-04-26T16:41:28.148Z,40.21
2023-04-26T16:43:56.499Z,40.01
2023-04-26T16:46:24.403Z,41.35
2023-04-26T16:48:52.622Z,39.86
2023-04-26T16:51:20.640Z,40.15
2023-04-26T16:53:51.140Z,41.77
2023-04-26T16:56:20.015Z,41.09
2023-04-26T16:58:50.100Z,38.97
2023-04-26T17:01:18.452Z,41.48
2023-04-26T17:03:47.334Z,40.36
2023-04-26T17:06:15.176Z,39.66
2023-04-26T17:08:44.275Z,39.70
2023-04-26T17:11:19.416Z,40.25
2023-04-26T17:13:52.779Z,39.61
2023-04-26T17:16:26.034Z,39.85
2023-04-26T17:18:57.251Z,41.39
2023-04-26T17:21:28.255Z,39.26
2023-04-26T17:23:59.761Z,39.59
2023-04-26T17:26:27.831Z,40.81
2023-04-26T17:28:56.512Z,40.15
2023-04-26T17:31:25.452Z,39.88
2023-04-26T17:33:53.287Z,39.94
2023-04-26T17:36:22.068Z,39.93
2023-04-26T17:38:51.415Z,39.77
2023-04-26T17:41:19.528Z,40.39
2023-04-26T17:43:50.540Z,41.21
2023-04-26T17:46:29.402Z,40.61
2023-04-26T17:48:57.572Z,42.33
2023-04-26T17:51:27.689Z,41.12
2023-04-26T17:54:06.304Z,40.77
2023-04-26T17:56:34.953Z,38.97
2023-04-26T17:59:03.886Z,38.09
2023-04-26T18:01:33.216Z,38.14
2023-04-26T18:04:19.527Z,38.38
2023-04-26T18:06:54.025Z,39.23
2023-04-26T18:09:22.624Z,39.28
2023-04-26T18:11:58.550Z,39.65
2023-04-26T18:14:28.186Z,41.26
2023-04-26T18:16:58.960Z,42.05
2023-04-26T18:19:28.708Z,42.87
2023-04-26T18:21:58.577Z,42.63
2023-04-26T18:24:29.834Z,43.69
2023-04-26T18:26:58.032Z,43.98
2023-04-26T18:29:27.553Z,45.55
2023-04-26T18:31:57.799Z,45.29
2023-04-26T18:34:25.912Z,48.11
2023-04-26T18:36:54.344Z,46.77
2023-04-26T18:39:22.654Z,47.80
2023-04-26T18:41:55.389Z,48.32
2023-04-26T18:44:23.619Z,50.60
2023-04-26T18:46:56.115Z,51.44
2023-04-26T18:49:27.665Z,52.57
2023-04-26T18:51:57.746Z,52.74
2023-04-26T18:54:28.404Z,54.20
2023-04-26T18:56:56.517Z,54.87
2023-04-26T18:59:24.611Z,55.24
2023-04-26T19:01:52.547Z,56.35
2023-04-26T19:04:23.558Z,55.53
2023-04-26T19:06:51.938Z,56.13
2023-04-26T19:09:20.141Z,56.82
2023-04-26T19:11:48.021Z,57.52
2023-04-26T19:14:17.707Z,57.33
2023-04-26T19:16:45.678Z,59.21
2023-04-26T19:19:18.082Z,57.54
2023-04-26T19:21:46.037Z,59.47
2023-04-26T19:24:13.902Z,61.00
2023-04-26T19:26:42.609Z,61.47
2023-04-26T19:29:11.146Z,62.04
2023-04-26T19:31:39.130Z,63.40
2023-04-26T19:34:07.101Z,63.56
2023-04-26T19:36:36.596Z,64.30
2023-04-26T19:39:06.831Z,62.36
2023-04-26T19:41:35.002Z,61.95
2023-04-26T19:44:03.501Z,62.54
2023-04-26T19:46:34.333Z,62.77
2023-04-26T19:49:02.324Z,63.09
2023-04-26T19:51:30.425Z,63.12
2023-04-26T19:53:59.273Z,61.83
2023-04-26T19:56:27.178Z,62.54
2023-04-26T19:58:56.337Z,60.31
2023-04-26T20:01:27.826Z,60.53
2023-04-26T20:03:56.175Z,61.52
2023-04-26T20:06:24.393Z,61.95
2023-04-26T20:08:55.713Z,62.64
2023-04-26T20:11:26.608Z,63.65
2023-04-26T20:14:01.378Z,63.00
2023-04-26T20:16:31.293Z,62.73
2023-04-26T20:19:03.022Z,62.63
2023-04-26T20:21:31.284Z,62.96
2023-04-26T20:23:59.873Z,65.20
2023-04-26T20:26:32.249Z,65.80
2023-04-26T20:29:04.551Z,67.04
2023-04-26T20:31:35.184Z,65.29
2023-04-26T20:34:05.649Z,66.14
2023-04-26T20:36:36.626Z,64.09
2023-04-26T20:39:05.265Z,65.18
2023-04-26T20:41:36.754Z,66.83
2023-04-26T20:44:05.494Z,66.58
2023-04-26T20:46:35.410Z,67.53
2023-04-26T20:49:08.075Z,66.30
2023-04-26T20:51:36.377Z,65.84
2023-04-26T20:54:04.667Z,66.13
2023-04-26T20:56:32.618Z,65.50
2023-04-26T20:59:03.129Z,67.07
2023-04-26T21:01:31.110Z,66.37
2023-04-26T21:04:06.755Z,66.27
2023-04-26T21:06:34.661Z,66.33
2023-04-26T21:09:02.782Z,67.03
2023-04-26T21:11:30.698Z,68.39
2023-04-26T21:14:07.486Z,67.98
2023-04-26T21:16:38.219Z,67.07
2023-04-26T21:19:06.385Z,67.18
2023-04-26T21:21:34.300Z,68.00
2023-04-26T21:24:06.096Z,68.30
2023-04-26T21:26:33.731Z,68.17
2023-04-26T21:29:01.937Z,67.13
2023-04-26T21:31:30.119Z,66.54
2023-04-26T21:33:57.998Z,65.61
2023-04-26T21:36:26.815Z,65.70
2023-04-26T21:38:54.368Z,64.37
2023-04-26T21:41:23.603Z,64.05
2023-04-26T21:43:53.082Z,63.98
2023-04-26T21:46:20.881Z,64.52
2023-04-26T21:48:48.769Z,66.03
2023-04-26T21:51:16.510Z,64.39
2023-04-26T21:53:44.158Z,64.97
2023-04-26T21:56:11.839Z,63.32
2023-04-26T21:58:39.674Z,62.92
2023-04-26T22:01:09.722Z,64.39
2023-04-26T22:03:38.248Z,64.00
2023-04-26T22:06:09.861Z,63.32
2023-04-26T22:08:38.715Z,62.67
2023-04-26T22:11:06.677Z,63.89
2023-04-26T22:13:34.442Z,63.56
2023-04-26T22:16:02.174Z,66.11
2023-04-26T22:18:33.296Z,67.83
2023-04-26T22:21:01.253Z,67.41
2023-04-26T22:23:28.908Z,66.81
2023-04-26T22:25:59.556Z,67.00
2023-04-26T22:28:31.119Z,65.69
2023-04-26T22:31:01.399Z,65.80
2023-04-26T22:33:29.197Z,65.00
2023-04-26T22:35:58.218Z,65.70
2023-04-26T22:38:26.613Z,65.64
2023-04-26T22:40:54.566Z,64.82
2023-04-26T22:43:23.652Z,65.89
2023-04-26T22:45:54.197Z,65.31
2023-04-26T22:48:25.124Z,67.57
2023-04-26T22:50:54.241Z,62.76
2023-04-26T22:53:22.069Z,62.58
2023-04-26T22:55:53.138Z,62.05
2023-04-26T22:58:20.867Z,62.06
2023-04-26T23:00:48.639Z,63.03
2023-04-26T23:03:16.499Z,62.73
2023-04-26T23:05:44.403Z,62.69
2023-04-26T23:08:12.298Z,61.16
2023-04-26T23:10:40.452Z,62.39
2023-04-26T23:13:08.038Z,62.34
2023-04-26T23:15:35.739Z,61.96
2023-04-26T23:18:04.331Z,62.52
2023-04-26T23:20:36.590Z,62.22
2023-04-26T23:23:04.333Z,62.03
2023-04-26T23:25:31.959Z,62.21
2023-04-26T23:28:00.295Z,62.13
2023-04-26T23:30:28.347Z,62.15
2023-04-26T23:32:56.496Z,61.89
2023-04-26T23:35:24.345Z,62.54
2023-04-26T23:37:52.713Z,62.44
2023-04-26T23:40:20.693Z,62.70
2023-04-26T23:42:48.830Z,61.76
2023-04-26T23:45:17.107Z,61.46
2023-04-26T23:47:45.152Z,61.71
2023-04-26T23:50:13.810Z,62.59
2023-04-26T23:52:44.423Z,62.88
2023-04-26T23:55:18.300Z,62.51
2023-04-26T23:57:46.478Z,60.94
